sensor_id;sensor_type;location;lat;lon;timestamp;pressure;altitude;pressure_sealevel;temperature;humidity
68301;BME280;55146;47.468;18.806;2023-05-19T00:01:44;100670.53;;;14.15;100.00
68301;BME280;55146;47.468;18.806;2023-05-19T00:04:12;100668.59;;;14.15;100.00
68301;BME280;55146;47.468;18.806;2023-05-19T00:06:39;100668.34;;;14.17;100.00
68301;BME280;55146;47.468;18.806;2023-05-19T00:09:08;100667.50;;;14.16;100.00
68301;BME280;55146;47.468;18.806;2023-05-19T00:11:35;100673.88;;;14.17;100.00
68301;BME280;55146;47.468;18.806;2023-05-19T00:14:02;100665.84;;;14.15;100.00
68301;BME280;55146;47.468;18.806;2023-05-19T00:16:29;100668.59;;;14.15;100.00
68301;BME280;55146;47.468;18.806;2023-05-19T00:18:56;100670.28;;;14.16;100.00
68301;BME280;55146;47.468;18.806;2023-05-19T00:21:24;100669.16;;;14.17;100.00
68301;BME280;55146;47.468;18.806;2023-05-19T00:23:49;100667.78;;;14.15;100.00
68301;BME280;55146;47.468;18.806;2023-05-19T00:26:15;100668.59;;;14.15;100.00
68301;BME280;55146;47.468;18.806;2023-05-19T00:28:40;100666.66;;;14.16;100.00
68301;BME280;55146;47.468;18.806;2023-05-19T00:31:05;100663.63;;;14.17;100.00
68301;BME280;55146;47.468;18.806;2023-05-19T00:33:31;100658.38;;;14.16;100.00
68301;BME280;55146;47.468;18.806;2023-05-19T00:35:58;100655.03;;;14.14;100.00
68301;BME280;55146;47.468;18.806;2023-05-19T00:38:23;100661.41;;;14.14;100.00
68301;BME280;55146;47.468;18.806;2023-05-19T00:40:48;100653.94;;;14.15;100.00
68301;BME280;55146;47.468;18.806;2023-05-19T00:43:14;100662.25;;;14.15;100.00
68301;BME280;55146;47.468;18.806;2023-05-19T00:45:39;100668.88;;;14.14;100.00
68301;BME280;55146;47.468;18.806;2023-05-19T00:48:05;100668.88;;;14.14;100.00
68301;BME280;55146;47.468;18.806;2023-05-19T00:50:31;100664.19;;;14.14;100.00
68301;BME280;55146;47.468;18.806;2023-05-19T00:52:56;100668.88;;;14.14;100.00
68301;BME280;55146;47.468;18.806;2023-05-19T00:55:27;100655.88;;;14.14;100.00
68301;BME280;55146;47.468;18.806;2023-05-19T00:57:54;100661.44;;;14.09;100.00
68301;BME280;55146;47.468;18.806;2023-05-19T01:00:20;100664.53;;;13.98;100.00
68301;BME280;55146;47.468;18.806;2023-05-19T01:02:46;100659.59;;;13.90;99.92
68301;BME280;55146;47.468;18.806;2023-05-19T01:05:11;100654.97;;;13.70;97.34
68301;BME280;55146;47.468;18.806;2023-05-19T01:07:38;100656.91;;;13.64;96.80
68301;BME280;55146;47.468;18.806;2023-05-19T01:10:03;100661.69;;;13.39;96.58
68301;BME280;55146;47.468;18.806;2023-05-19T01:12:29;100661.66;;;13.44;96.70
68301;BME280;55146;47.468;18.806;2023-05-19T01:14:56;100660.25;;;13.46;96.52
68301;BME280;55146;47.468;18.806;2023-05-19T01:17:53;100664.69;;;13.47;96.81
68301;BME280;55146;47.468;18.806;2023-05-19T01:20:38;100662.75;;;13.53;97.37
68301;BME280;55146;47.468;18.806;2023-05-19T01:23:38;100661.94;;;13.57;97.47
68301;BME280;55146;47.468;18.806;2023-05-19T01:26:29;100658.03;;;13.58;97.61
68301;BME280;55146;47.468;18.806;2023-05-19T01:31:54;100659.97;;;13.63;97.77
68301;BME280;55146;47.468;18.806;2023-05-19T01:34:25;100662.44;;;13.59;97.30
68301;BME280;55146;47.468;18.806;2023-05-19T01:36:53;100674.09;;;13.56;97.07
68301;BME280;55146;47.468;18.806;2023-05-19T01:39:19;100669.38;;;13.52;96.47
68301;BME280;55146;47.468;18.806;2023-05-19T01:41:46;100672.13;;;13.52;96.65
68301;BME280;55146;47.468;18.806;2023-05-19T01:44:12;100671.03;;;13.53;96.99
68301;BME280;55146;47.468;18.806;2023-05-19T01:46:38;100662.47;;;13.54;97.17
68301;BME280;55146;47.468;18.806;2023-05-19T01:49:05;100663.56;;;13.58;97.39
68301;BME280;55146;47.468;18.806;2023-05-19T01:51:30;100662.72;;;13.58;97.14
68301;BME280;55146;47.468;18.806;2023-05-19T01:53:55;100667.16;;;13.59;97.20
68301;BME280;55146;47.468;18.806;2023-05-19T01:56:30;100664.97;;;13.56;97.22
68301;BME280;55146;47.468;18.806;2023-05-19T01:59:04;100666.34;;;13.48;96.58
68301;BME280;55146;47.468;18.806;2023-05-19T02:01:47;100656.12;;;13.49;96.48
68301;BME280;55146;47.468;18.806;2023-05-19T02:10:13;100664.41;;;13.54;97.70
68301;BME280;55146;47.468;18.806;2023-05-19T02:12:42;100662.47;;;13.54;98.03
68301;BME280;55146;47.468;18.806;2023-05-19T02:15:15;100667.72;;;13.56;98.27
68301;BME280;55146;47.468;18.806;2023-05-19T02:17:43;100659.16;;;13.52;98.29
68301;BME280;55146;47.468;18.806;2023-05-19T02:20:13;100666.91;;;13.50;98.22
68301;BME280;55146;47.468;18.806;2023-05-19T02:22:38;100660.00;;;13.43;97.06
68301;BME280;55146;47.468;18.806;2023-05-19T02:25:04;100659.19;;;13.37;96.95
68301;BME280;55146;47.468;18.806;2023-05-19T02:27:30;100656.44;;;13.37;97.01
68301;BME280;55146;47.468;18.806;2023-05-19T02:29:55;100663.03;;;13.41;96.97
68301;BME280;55146;47.468;18.806;2023-05-19T02:32:21;100660.28;;;13.41;97.12
68301;BME280;55146;47.468;18.806;2023-05-19T02:34:46;100655.84;;;13.40;97.35
68301;BME280;55146;47.468;18.806;2023-05-19T02:37:15;100659.44;;;13.41;97.62
68301;BME280;55146;47.468;18.806;2023-05-19T02:39:42;100655.03;;;13.40;97.81
68301;BME280;55146;47.468;18.806;2023-05-19T02:42:07;100658.09;;;13.38;97.61
68301;BME280;55146;47.468;18.806;2023-05-19T02:44:33;100662.78;;;13.38;97.61
68301;BME280;55146;47.468;18.806;2023-05-19T02:46:59;100660.03;;;13.38;97.81
68301;BME280;55146;47.468;18.806;2023-05-19T02:49:24;100662.78;;;13.38;97.92
68301;BME280;55146;47.468;18.806;2023-05-19T02:51:49;100658.09;;;13.38;98.21
68301;BME280;55146;47.468;18.806;2023-05-19T02:54:15;100661.41;;;13.35;98.40
68301;BME280;55146;47.468;18.806;2023-05-19T02:56:40;100656.97;;;13.34;98.27
68301;BME280;55146;47.468;18.806;2023-05-19T02:59:05;100656.44;;;13.32;98.30
68301;BME280;55146;47.468;18.806;2023-05-19T03:01:31;100658.91;;;13.33;98.66
68301;BME280;55146;47.468;18.806;2023-05-19T03:03:57;100666.09;;;13.29;98.67
68301;BME280;55146;47.468;18.806;2023-05-19T03:06:22;100661.16;;;13.26;98.54
68301;BME280;55146;47.468;18.806;2023-05-19T03:08:48;100668.88;;;13.24;98.49
68301;BME280;55146;47.468;18.806;2023-05-19T03:11:14;100673.56;;;13.24;98.48
68301;BME280;55146;47.468;18.806;2023-05-19T03:13:40;100668.59;;;13.21;98.47
68301;BME280;55146;47.468;18.806;2023-05-19T03:16:05;100665.03;;;13.20;98.45
68301;BME280;55146;47.468;18.806;2023-05-19T03:18:32;100662.81;;;13.17;98.59
68301;BME280;55146;47.468;18.806;2023-05-19T03:20:58;100672.19;;;13.16;98.54
68301;BME280;55146;47.468;18.806;2023-05-19T03:23:23;100666.94;;;13.15;98.63
68301;BME280;55146;47.468;18.806;2023-05-19T03:25:48;100662.81;;;13.12;98.86
68301;BME280;55146;47.468;18.806;2023-05-19T03:28:14;100671.09;;;13.12;98.97
68301;BME280;55146;47.468;18.806;2023-05-19T03:30:39;100670.25;;;13.12;98.96
68301;BME280;55146;47.468;18.806;2023-05-19T03:33:05;100674.09;;;13.11;99.00
68301;BME280;55146;47.468;18.806;2023-05-19T03:35:30;100672.44;;;13.10;99.06
68301;BME280;55146;47.468;18.806;2023-05-19T03:37:55;100673.00;;;13.12;99.20
68301;BME280;55146;47.468;18.806;2023-05-19T03:40:21;100676.63;;;13.12;99.44
68301;BME280;55146;47.468;18.806;2023-05-19T03:42:46;100672.47;;;13.15;99.62
68301;BME280;55146;47.468;18.806;2023-05-19T03:45:11;100666.12;;;13.14;99.74
68301;BME280;55146;47.468;18.806;2023-05-19T03:47:37;100670.25;;;13.07;99.62
68301;BME280;55146;47.468;18.806;2023-05-19T03:50:02;100673.84;;;13.07;99.78
68301;BME280;55146;47.468;18.806;2023-05-19T03:52:29;100675.50;;;13.08;99.77
68301;BME280;55146;47.468;18.806;2023-05-19T03:54:54;100667.47;;;13.07;100.00
68301;BME280;55146;47.468;18.806;2023-05-19T03:57:21;100670.50;;;13.10;100.00
68301;BME280;55146;47.468;18.806;2023-05-19T03:59:47;100675.75;;;13.12;100.00
68301;BME280;55146;47.468;18.806;2023-05-19T04:02:12;100671.66;;;13.14;100.00
68301;BME280;55146;47.468;18.806;2023-05-19T04:04:37;100679.94;;;13.14;100.00
68301;BME280;55146;47.468;18.806;2023-05-19T04:07:03;100687.41;;;13.14;100.00
68301;BME280;55146;47.468;18.806;2023-05-19T04:09:28;100680.75;;;13.15;100.00
68301;BME280;55146;47.468;18.806;2023-05-19T04:11:56;100685.19;;;13.16;100.00
68301;BME280;55146;47.468;18.806;2023-05-19T04:14:21;100682.16;;;13.17;100.00
68301;BME280;55146;47.468;18.806;2023-05-19T04:16:47;100682.41;;;13.21;100.00
68301;BME280;55146;47.468;18.806;2023-05-19T04:19:13;100693.47;;;13.21;100.00
68301;BME280;55146;47.468;18.806;2023-05-19T04:21:38;100693.47;;;13.21;99.97
68301;BME280;55146;47.468;18.806;2023-05-19T04:24:04;100698.44;;;13.19;99.45
68301;BME280;55146;47.468;18.806;2023-05-19T04:26:30;100695.13;;;13.22;99.14
68301;BME280;55146;47.468;18.806;2023-05-19T04:28:59;100694.28;;;13.21;99.25
68301;BME280;55146;47.468;18.806;2023-05-19T04:31:25;100694.84;;;13.23;99.61
68301;BME280;55146;47.468;18.806;2023-05-19T04:33:52;100701.19;;;13.29;99.66
68301;BME280;55146;47.468;18.806;2023-05-19T04:36:18;100701.75;;;13.31;99.61
68301;BME280;55146;47.468;18.806;2023-05-19T04:38:46;100698.44;;;13.34;99.32
68301;BME280;55146;47.468;18.806;2023-05-19T04:41:11;100706.19;;;13.37;98.87
68301;BME280;55146;47.468;18.806;2023-05-19T04:43:37;100711.13;;;13.40;98.82
68301;BME280;55146;47.468;18.806;2023-05-19T04:46:11;100710.59;;;13.38;98.41
68301;BME280;55146;47.468;18.806;2023-05-19T04:48:36;100708.66;;;13.39;97.96
68301;BME280;55146;47.468;18.806;2023-05-19T04:51:02;100719.72;;;13.39;97.49
68301;BME280;55146;47.468;18.806;2023-05-19T04:53:28;100715.00;;;13.44;97.97
68301;BME280;55146;47.468;18.806;2023-05-19T04:55:54;100719.44;;;13.45;97.77
68301;BME280;55146;47.468;18.806;2023-05-19T04:58:20;100713.06;;;13.50;97.61
68301;BME280;55146;47.468;18.806;2023-05-19T05:00:46;100726.88;;;13.55;97.56
68301;BME280;55146;47.468;18.806;2023-05-19T05:03:11;100718.84;;;13.53;96.74
68301;BME280;55146;47.468;18.806;2023-05-19T05:05:39;100718.84;;;13.53;97.15
68301;BME280;55146;47.468;18.806;2023-05-19T05:08:04;100718.00;;;13.58;97.25
68301;BME280;55146;47.468;18.806;2023-05-19T05:10:30;100715.53;;;13.66;96.50
68301;BME280;55146;47.468;18.806;2023-05-19T05:12:55;100719.38;;;13.70;95.15
68301;BME280;55146;47.468;18.806;2023-05-19T05:15:21;100729.31;;;13.82;95.81
68301;BME280;55146;47.468;18.806;2023-05-19T05:17:48;100716.84;;;13.84;97.55
68301;BME280;55146;47.468;18.806;2023-05-19T05:20:14;100723.22;;;13.95;97.87
68301;BME280;55146;47.468;18.806;2023-05-19T05:22:40;100728.16;;;14.03;98.28
68301;BME280;55146;47.468;18.806;2023-05-19T05:25:06;100733.94;;;14.11;98.31
68301;BME280;55146;47.468;18.806;2023-05-19T05:27:32;100734.72;;;14.22;98.27
68301;BME280;55146;47.468;18.806;2023-05-19T05:29:57;100734.12;;;14.30;98.33
68301;BME280;55146;47.468;18.806;2023-05-19T05:32:23;100734.66;;;14.32;95.84
68301;BME280;55146;47.468;18.806;2023-05-19T05:34:48;100729.13;;;14.32;95.68
68301;BME280;55146;47.468;18.806;2023-05-19T05:37:15;100738.81;;;14.35;95.02
68301;BME280;55146;47.468;18.806;2023-05-19T05:39:40;100736.88;;;14.40;94.75
68301;BME280;55146;47.468;18.806;2023-05-19T05:42:06;100742.37;;;14.45;94.09
68301;BME280;55146;47.468;18.806;2023-05-19T05:44:33;100744.03;;;14.51;93.77
68301;BME280;55146;47.468;18.806;2023-05-19T05:47:00;100737.94;;;14.54;93.16
68301;BME280;55146;47.468;18.806;2023-05-19T05:49:25;100739.56;;;14.61;93.30
68301;BME280;55146;47.468;18.806;2023-05-19T05:51:51;100740.59;;;14.70;94.25
68301;BME280;55146;47.468;18.806;2023-05-19T05:54:19;100743.59;;;14.78;95.07
68301;BME280;55146;47.468;18.806;2023-05-19T05:56:46;100735.25;;;14.83;95.26
68301;BME280;55146;47.468;18.806;2023-05-19T05:59:11;100743.78;;;14.92;94.55
68301;BME280;55146;47.468;18.806;2023-05-19T06:01:37;100741.81;;;14.97;93.93
68301;BME280;55146;47.468;18.806;2023-05-19T06:04:02;100740.91;;;15.07;93.62
68301;BME280;55146;47.468;18.806;2023-05-19T06:06:28;100750.56;;;15.15;92.64
68301;BME280;55146;47.468;18.806;2023-05-19T06:08:53;100750.13;;;15.31;91.17
68301;BME280;55146;47.468;18.806;2023-05-19T06:11:18;100752.25;;;15.45;88.39
68301;BME280;55146;47.468;18.806;2023-05-19T06:13:44;100748.78;;;15.63;87.93
68301;BME280;55146;47.468;18.806;2023-05-19T06:16:09;100743.38;;;15.76;85.93
68301;BME280;55146;47.468;18.806;2023-05-19T06:18:35;100748.19;;;15.95;87.05
68301;BME280;55146;47.468;18.806;2023-05-19T06:21:00;100749.16;;;16.09;88.99
68301;BME280;55146;47.468;18.806;2023-05-19T06:23:26;100751.03;;;16.13;89.09
68301;BME280;55146;47.468;18.806;2023-05-19T06:25:53;100751.09;;;16.08;86.05
68301;BME280;55146;47.468;18.806;2023-05-19T06:28:18;100764.12;;;16.08;87.96
68301;BME280;55146;47.468;18.806;2023-05-19T06:30:44;100756.81;;;16.17;89.99
68301;BME280;55146;47.468;18.806;2023-05-19T06:33:09;100761.63;;;16.35;88.89
68301;BME280;55146;47.468;18.806;2023-05-19T06:35:34;100759.75;;;16.49;85.42
68301;BME280;55146;47.468;18.806;2023-05-19T06:38:00;100765.22;;;16.54;86.58
68301;BME280;55146;47.468;18.806;2023-05-19T06:40:25;100754.88;;;16.65;87.22
68301;BME280;55146;47.468;18.806;2023-05-19T06:42:50;100767.56;;;16.71;85.94
68301;BME280;55146;47.468;18.806;2023-05-19T06:45:16;100760.34;;;16.89;85.37
68301;BME280;55146;47.468;18.806;2023-05-19T06:47:46;100766.22;;;17.06;87.08
68301;BME280;55146;47.468;18.806;2023-05-19T06:50:11;100760.09;;;17.23;85.94
68301;BME280;55146;47.468;18.806;2023-05-19T06:52:36;100773.34;;;17.31;83.69
68301;BME280;55146;47.468;18.806;2023-05-19T06:55:02;100769.03;;;17.38;82.26
68301;BME280;55146;47.468;18.806;2023-05-19T06:57:27;100766.47;;;17.42;83.23
68301;BME280;55146;47.468;18.806;2023-05-19T06:59:53;100771.12;;;17.47;81.52
68301;BME280;55146;47.468;18.806;2023-05-19T07:02:18;100779.09;;;17.34;79.36
68301;BME280;55146;47.468;18.806;2023-05-19T07:04:44;100776.50;;;17.24;83.44
68301;BME280;55146;47.468;18.806;2023-05-19T07:07:10;100780.78;;;17.17;81.63
68301;BME280;55146;47.468;18.806;2023-05-19T07:09:35;100783.06;;;17.15;80.73
68301;BME280;55146;47.468;18.806;2023-05-19T07:12:00;100781.97;;;17.11;80.78
68301;BME280;55146;47.468;18.806;2023-05-19T07:14:26;100782.59;;;17.08;82.50
68301;BME280;55146;47.468;18.806;2023-05-19T07:16:51;100780.66;;;17.08;81.78
68301;BME280;55146;47.468;18.806;2023-05-19T07:19:17;100774.47;;;17.11;81.54
68301;BME280;55146;47.468;18.806;2023-05-19T07:21:46;100779.19;;;17.11;80.92
68301;BME280;55146;47.468;18.806;2023-05-19T07:24:11;100778.06;;;17.12;81.62
68301;BME280;55146;47.468;18.806;2023-05-19T07:26:37;100778.06;;;17.12;81.70
68301;BME280;55146;47.468;18.806;2023-05-19T07:29:03;100773.56;;;17.16;81.24
68301;BME280;55146;47.468;18.806;2023-05-19T07:31:28;100773.13;;;17.27;85.04
68301;BME280;55146;47.468;18.806;2023-05-19T07:33:53;100775.94;;;17.41;85.17
68301;BME280;55146;47.468;18.806;2023-05-19T07:36:19;100780.00;;;17.49;82.95
68301;BME280;55146;47.468;18.806;2023-05-19T07:38:45;100770.34;;;17.60;83.90
68301;BME280;55146;47.468;18.806;2023-05-19T07:41:11;100768.84;;;17.67;83.25
68301;BME280;55146;47.468;18.806;2023-05-19T07:43:36;100763.09;;;17.77;82.74
68301;BME280;55146;47.468;18.806;2023-05-19T07:46:02;100771.81;;;17.90;84.59
68301;BME280;55146;47.468;18.806;2023-05-19T07:48:27;100763.03;;;17.96;83.43
68301;BME280;55146;47.468;18.806;2023-05-19T07:50:53;100762.75;;;18.11;84.89
68301;BME280;55146;47.468;18.806;2023-05-19T07:53:19;100770.91;;;18.08;81.59
68301;BME280;55146;47.468;18.806;2023-05-19T07:55:46;100762.44;;;18.13;80.28
68301;BME280;55146;47.468;18.806;2023-05-19T07:58:12;100759.75;;;18.22;78.89
68301;BME280;55146;47.468;18.806;2023-05-19T08:00:38;100756.03;;;18.12;81.25
68301;BME280;55146;47.468;18.806;2023-05-19T08:03:03;100762.00;;;18.33;83.04
68301;BME280;55146;47.468;18.806;2023-05-19T08:05:28;100760.06;;;18.47;80.77
68301;BME280;55146;47.468;18.806;2023-05-19T08:07:55;100758.81;;;18.53;80.60
68301;BME280;55146;47.468;18.806;2023-05-19T08:10:21;100756.25;;;18.30;79.19
68301;BME280;55146;47.468;18.806;2023-05-19T08:12:46;100746.53;;;18.54;82.46
68301;BME280;55146;47.468;18.806;2023-05-19T08:15:12;100739.84;;;18.69;82.34
68301;BME280;55146;47.468;18.806;2023-05-19T08:17:37;100752.59;;;18.84;84.05
68301;BME280;55146;47.468;18.806;2023-05-19T08:20:04;100745.47;;;18.91;80.60
68301;BME280;55146;47.468;18.806;2023-05-19T08:22:30;100747.25;;;19.10;82.26
68301;BME280;55146;47.468;18.806;2023-05-19T08:24:56;100748.91;;;19.33;78.47
68301;BME280;55146;47.468;18.806;2023-05-19T08:27:22;100746.72;;;19.66;76.77
68301;BME280;55146;47.468;18.806;2023-05-19T08:29:47;100742.81;;;19.75;75.21
68301;BME280;55146;47.468;18.806;2023-05-19T08:32:13;100746.81;;;19.83;75.06
68301;BME280;55146;47.468;18.806;2023-05-19T08:34:38;100748.00;;;19.91;75.79
68301;BME280;55146;47.468;18.806;2023-05-19T08:37:03;100735.25;;;20.07;74.05
68301;BME280;55146;47.468;18.806;2023-05-19T08:39:29;100745.59;;;20.06;72.59
68301;BME280;55146;47.468;18.806;2023-05-19T08:41:55;100746.44;;;20.07;75.58
68301;BME280;55146;47.468;18.806;2023-05-19T08:44:20;100739.44;;;20.18;74.21
68301;BME280;55146;47.468;18.806;2023-05-19T08:46:46;100746.78;;;20.36;76.01
68301;BME280;55146;47.468;18.806;2023-05-19T08:49:13;100746.94;;;20.40;73.22
68301;BME280;55146;47.468;18.806;2023-05-19T08:51:50;100739.97;;;20.29;74.45
68301;BME280;55146;47.468;18.806;2023-05-19T08:54:24;100738.06;;;20.07;75.23
68301;BME280;55146;47.468;18.806;2023-05-19T08:56:50;100742.66;;;20.03;73.93
68301;BME280;55146;47.468;18.806;2023-05-19T08:59:16;100738.63;;;20.26;74.05
68301;BME280;55146;47.468;18.806;2023-05-19T09:01:43;100742.06;;;20.63;69.90
68301;BME280;55146;47.468;18.806;2023-05-19T09:04:10;100742.59;;;20.82;74.49
68301;BME280;55146;47.468;18.806;2023-05-19T09:06:35;100740.25;;;20.75;72.17
68301;BME280;55146;47.468;18.806;2023-05-19T09:09:02;100737.84;;;20.91;74.21
68301;BME280;55146;47.468;18.806;2023-05-19T09:11:28;100726.00;;;21.37;71.26
68301;BME280;55146;47.468;18.806;2023-05-19T09:13:53;100719.31;;;21.76;72.68
68301;BME280;55146;47.468;18.806;2023-05-19T09:16:19;100733.13;;;21.90;65.97
68301;BME280;55146;47.468;18.806;2023-05-19T09:18:57;100727.59;;;21.72;68.88
68301;BME280;55146;47.468;18.806;2023-05-19T09:21:32;100728.75;;;21.54;65.95
68301;BME280;55146;47.468;18.806;2023-05-19T09:24:04;100724.00;;;21.37;66.87
68301;BME280;55146;47.468;18.806;2023-05-19T09:26:37;100719.56;;;21.02;67.95
68301;BME280;55146;47.468;18.806;2023-05-19T09:29:14;100724.81;;;21.12;70.24
68301;BME280;55146;47.468;18.806;2023-05-19T09:31:47;100726.78;;;20.94;66.72
68301;BME280;55146;47.468;18.806;2023-05-19T09:34:13;100731.56;;;20.94;68.73
68301;BME280;55146;47.468;18.806;2023-05-19T09:36:39;100724.16;;;21.07;70.73
68301;BME280;55146;47.468;18.806;2023-05-19T09:39:16;100721.16;;;20.51;70.79
68301;BME280;55146;47.468;18.806;2023-05-19T09:41:42;100718.34;;;20.43;69.47
68301;BME280;55146;47.468;18.806;2023-05-19T09:44:26;100716.06;;;20.62;72.35
68301;BME280;55146;47.468;18.806;2023-05-19T09:46:55;100709.53;;;20.84;69.29
68301;BME280;55146;47.468;18.806;2023-05-19T09:49:25;100703.94;;;21.01;73.37
68301;BME280;55146;47.468;18.806;2023-05-19T09:51:56;100708.66;;;21.61;70.89
68301;BME280;55146;47.468;18.806;2023-05-19T09:54:22;100704.94;;;22.03;70.05
68301;BME280;55146;47.468;18.806;2023-05-19T09:57:01;100694.84;;;22.40;70.23
68301;BME280;55146;47.468;18.806;2023-05-19T09:59:28;100699.34;;;22.33;64.56
68301;BME280;55146;47.468;18.806;2023-05-19T10:01:58;100696.97;;;22.43;67.08
68301;BME280;55146;47.468;18.806;2023-05-19T10:04:25;100690.53;;;22.72;65.05
68301;BME280;55146;47.468;18.806;2023-05-19T10:06:56;100689.16;;;22.99;65.63
68301;BME280;55146;47.468;18.806;2023-05-19T10:09:24;100690.78;;;23.21;65.98
68301;BME280;55146;47.468;18.806;2023-05-19T10:11:51;100684.63;;;23.39;61.42
68301;BME280;55146;47.468;18.806;2023-05-19T10:14:21;100682.94;;;23.47;60.56
68301;BME280;55146;47.468;18.806;2023-05-19T10:16:49;100674.72;;;23.75;61.44
68301;BME280;55146;47.468;18.806;2023-05-19T10:19:15;100667.72;;;24.05;61.64
68301;BME280;55146;47.468;18.806;2023-05-19T10:21:41;100673.03;;;24.19;59.71
68301;BME280;55146;47.468;18.806;2023-05-19T10:24:07;100671.81;;;24.20;60.57
68301;BME280;55146;47.468;18.806;2023-05-19T10:26:33;100664.34;;;24.24;60.58
68301;BME280;55146;47.468;18.806;2023-05-19T10:29:02;100666.91;;;24.17;58.34
68301;BME280;55146;47.468;18.806;2023-05-19T10:31:29;100664.66;;;24.10;58.07
68301;BME280;55146;47.468;18.806;2023-05-19T10:37:07;100660.13;;;24.42;61.70
68301;BME280;55146;47.468;18.806;2023-05-19T10:39:41;100655.97;;;24.52;59.55
68301;BME280;55146;47.468;18.806;2023-05-19T10:42:13;100651.75;;;24.58;62.21
68301;BME280;55146;47.468;18.806;2023-05-19T10:47:42;100660.91;;;23.94;57.16
68301;BME280;55146;47.468;18.806;2023-05-19T10:50:08;100653.50;;;23.90;58.27
68301;BME280;55146;47.468;18.806;2023-05-19T10:52:38;100645.47;;;23.88;60.07
68301;BME280;55146;47.468;18.806;2023-05-19T10:55:07;100646.97;;;23.86;61.89
68301;BME280;55146;47.468;18.806;2023-05-19T10:57:33;100642.75;;;23.79;59.28
68301;BME280;55146;47.468;18.806;2023-05-19T11:00:02;100642.53;;;23.97;60.13
68301;BME280;55146;47.468;18.806;2023-05-19T11:05:14;100628.94;;;23.87;60.71
68301;BME280;55146;47.468;18.806;2023-05-19T11:07:43;100637.44;;;23.66;60.86
68301;BME280;55146;47.468;18.806;2023-05-19T11:10:09;100625.66;;;23.85;59.28
68301;BME280;55146;47.468;18.806;2023-05-19T11:12:44;100629.78;;;23.09;61.97
68301;BME280;55146;47.468;18.806;2023-05-19T11:15:13;100633.94;;;23.24;61.03
68301;BME280;55146;47.468;18.806;2023-05-19T11:17:39;100633.41;;;23.10;60.20
68301;BME280;55146;47.468;18.806;2023-05-19T11:20:07;100630.53;;;23.18;61.01
68301;BME280;55146;47.468;18.806;2023-05-19T11:22:35;100624.69;;;23.23;61.01
68301;BME280;55146;47.468;18.806;2023-05-19T11:25:01;100623.16;;;23.14;61.64
68301;BME280;55146;47.468;18.806;2023-05-19T11:27:29;100625.53;;;23.57;65.31
68301;BME280;55146;47.468;18.806;2023-05-19T11:29:59;100614.66;;;23.92;59.54
68301;BME280;55146;47.468;18.806;2023-05-19T11:32:28;100616.97;;;23.90;60.76
68301;BME280;55146;47.468;18.806;2023-05-19T11:34:55;100625.97;;;23.71;59.92
68301;BME280;55146;47.468;18.806;2023-05-19T11:37:20;100627.50;;;23.23;62.66
68301;BME280;55146;47.468;18.806;2023-05-19T11:39:46;100627.94;;;23.13;60.75
68301;BME280;55146;47.468;18.806;2023-05-19T11:42:12;100628.84;;;23.05;62.46
68301;BME280;55146;47.468;18.806;2023-05-19T11:44:38;100627.16;;;22.92;63.43
68301;BME280;55146;47.468;18.806;2023-05-19T11:47:05;100618.50;;;23.30;64.01
68301;BME280;55146;47.468;18.806;2023-05-19T11:49:31;100625.53;;;23.57;61.89
68301;BME280;55146;47.468;18.806;2023-05-19T11:51:59;100620.00;;;23.60;58.40
68301;BME280;55146;47.468;18.806;2023-05-19T11:54:32;100617.38;;;23.43;58.63
68301;BME280;55146;47.468;18.806;2023-05-19T11:57:01;100623.44;;;23.33;58.38
68301;BME280;55146;47.468;18.806;2023-05-19T11:59:34;100628.56;;;23.19;60.18
68301;BME280;55146;47.468;18.806;2023-05-19T12:02:24;100634.06;;;23.27;62.36
68301;BME280;55146;47.468;18.806;2023-05-19T12:04:52;100626.56;;;23.19;59.26
68301;BME280;55146;47.468;18.806;2023-05-19T12:07:19;100632.78;;;23.25;60.99
68301;BME280;55146;47.468;18.806;2023-05-19T12:09:47;100624.44;;;23.49;63.69
68301;BME280;55146;47.468;18.806;2023-05-19T12:12:15;100617.09;;;23.69;60.36
68301;BME280;55146;47.468;18.806;2023-05-19T12:14:41;100617.81;;;23.90;58.34
68301;BME280;55146;47.468;18.806;2023-05-19T12:17:13;100603.16;;;24.09;58.66
68301;BME280;55146;47.468;18.806;2023-05-19T12:19:42;100605.63;;;24.23;60.85
68301;BME280;55146;47.468;18.806;2023-05-19T12:22:08;100599.09;;;24.18;56.74
68301;BME280;55146;47.468;18.806;2023-05-19T12:24:35;100603.28;;;24.37;58.23
68301;BME280;55146;47.468;18.806;2023-05-19T12:27:22;100598.44;;;24.49;61.23
68301;BME280;55146;47.468;18.806;2023-05-19T12:29:49;100595.59;;;24.62;59.44
68301;BME280;55146;47.468;18.806;2023-05-19T12:32:18;100584.12;;;24.54;59.94
68301;BME280;55146;47.468;18.806;2023-05-19T12:34:46;100582.97;;;24.55;58.84
68301;BME280;55146;47.468;18.806;2023-05-19T12:37:12;100581.19;;;24.51;60.49
68301;BME280;55146;47.468;18.806;2023-05-19T12:39:41;100568.06;;;24.55;58.87
68301;BME280;55146;47.468;18.806;2023-05-19T12:42:07;100563.69;;;24.30;57.88
68301;BME280;55146;47.468;18.806;2023-05-19T12:44:43;100561.91;;;24.37;57.33
68301;BME280;55146;47.468;18.806;2023-05-19T12:47:10;100566.78;;;24.52;59.40
68301;BME280;55146;47.468;18.806;2023-05-19T12:49:36;100566.81;;;24.40;61.25
68301;BME280;55146;47.468;18.806;2023-05-19T12:52:02;100557.22;;;24.29;58.66
68301;BME280;55146;47.468;18.806;2023-05-19T12:54:32;100556.50;;;24.32;59.59
68301;BME280;55146;47.468;18.806;2023-05-19T12:56:57;100551.47;;;24.38;61.01